Time;durP1;ratioP1;P1;durP2;ratioP2;P2;SDS_P1;SDS_P2;PMS_P1;PMS_P2;Temp;Humidity;BMP_temperature;BMP_pressure;BME280_temperature;BME280_humidity;BME280_pressure;Samples;Min_cycle;Max_cycle;Signal;HPM_P1;HPM_P2
2020/12/19 00:01:33;;;;;;;38.38;13.45;;;;;;;1.39;79.34;102358.38;1681830;84;20992;-88
2020/12/19 00:03:59;;;;;;;39.80;13.38;;;;;;;1.19;79.91;102362.53;1705629;84;21201;-88
2020/12/19 00:06:26;;;;;;;42.27;14.23;;;;;;;1.15;80.01;102363.84;1682013;84;21226;-89
2020/12/19 00:08:52;;;;;;;41.88;13.22;;;;;;;1.07;80.68;102363.77;1705549;83;21496;-89
2020/12/19 00:11:19;;;;;;;41.00;13.43;;;;;;;1.10;80.71;102361.64;1705672;84;21259;-88
2020/12/19 00:13:44;;;;;;;40.52;13.85;;;;;;;1.14;80.63;102359.00;1705590;84;21174;-89
2020/12/19 00:16:16;;;;;;;42.38;14.45;;;;;;;1.08;80.62;102354.81;1705625;84;21134;-88
2020/12/19 00:18:42;;;;;;;40.95;13.90;;;;;;;1.12;80.74;102358.34;1720750;80;21107;-89
2020/12/19 00:21:10;;;;;;;44.18;16.07;;;;;;;1.17;80.69;102361.02;1791455;79;21206;-89
2020/12/19 00:23:36;;;;;;;45.38;15.98;;;;;;;1.19;80.69;102359.88;1791272;80;21138;-89
2020/12/19 00:26:02;;;;;;;50.08;16.37;;;;;;;1.23;80.58;102355.91;1791286;79;21557;-89
2020/12/19 00:28:28;;;;;;;45.35;15.10;;;;;;;1.24;80.71;102350.97;1791274;80;21004;-89
2020/12/19 00:30:55;;;;;;;49.67;16.42;;;;;;;1.29;80.69;102351.31;1791396;80;21130;-88
2020/12/19 00:33:21;;;;;;;45.33;15.35;;;;;;;1.24;80.41;102349.64;1791249;80;21234;-88
2020/12/19 00:35:47;;;;;;;49.80;16.60;;;;;;;1.23;80.42;102341.31;1791316;80;21536;-89
2020/12/19 00:38:13;;;;;;;54.65;17.37;;;;;;;1.25;80.59;102339.84;1791427;79;21023;-90
2020/12/19 00:40:39;;;;;;;46.50;15.75;;;;;;;1.25;80.28;102334.03;1791238;80;21204;-89
2020/12/19 00:43:05;;;;;;;47.23;15.85;;;;;;;1.27;80.14;102325.43;1791441;80;21009;-89
2020/12/19 00:45:31;;;;;;;56.08;16.32;;;;;;;1.25;80.55;102334.03;1791251;79;21577;-89
2020/12/19 00:47:57;;;;;;;51.85;17.12;;;;;;;1.28;80.52;102327.08;1791145;80;21008;-89
2020/12/19 00:50:23;;;;;;;50.95;16.57;;;;;;;1.22;80.68;102326.88;1791325;79;20945;-89
2020/12/19 00:52:48;;;;;;;54.25;18.25;;;;;;;1.19;80.93;102331.17;1791190;80;20925;-89
2020/12/19 00:55:14;;;;;;;54.90;18.17;;;;;;;1.19;81.01;102325.36;1787537;79;21588;-89
2020/12/19 00:57:40;;;;;;;50.38;16.95;;;;;;;1.28;80.53;102320.95;1791403;80;21024;-88
2020/12/19 01:00:09;;;;;;;56.15;16.55;;;;;;;1.29;80.37;102319.95;1793795;79;20937;-89
2020/12/19 01:02:36;;;;;;;53.20;16.67;;;;;;;1.15;80.17;102317.38;1796118;79;21105;-88
2020/12/19 01:05:09;;;;;;;57.13;19.02;;;;;;;1.00;81.18;102317.11;1796456;79;21155;-89
2020/12/19 01:07:40;;;;;;;54.85;16.70;;;;;;;0.99;81.43;102317.24;1796203;79;21177;-88
2020/12/19 01:10:11;;;;;;;60.58;20.15;;;;;;;1.03;81.08;102311.95;1796384;79;21218;-89
2020/12/19 01:12:38;;;;;;;65.00;20.57;;;;;;;1.02;81.30;102312.95;1796265;79;21147;-88
2020/12/19 01:15:07;;;;;;;62.65;19.23;;;;;;;0.95;81.58;102303.95;1796388;79;21107;-89
2020/12/19 01:17:33;;;;;;;57.65;18.42;;;;;;;0.95;81.39;102303.45;1796261;79;21457;-89
2020/12/19 01:19:59;;;;;;;52.38;18.25;;;;;;;0.95;81.41;102293.34;1796352;79;20950;-89
2020/12/19 01:22:26;;;;;;;65.70;20.55;;;;;;;0.80;82.20;102284.59;1796268;79;21265;-89
2020/12/19 01:24:52;;;;;;;53.05;18.02;;;;;;;0.83;82.15;102284.28;1796286;79;21260;-89
2020/12/19 01:27:18;;;;;;;59.45;19.05;;;;;;;0.76;82.12;102277.08;1796168;79;21206;-89
2020/12/19 01:29:43;;;;;;;48.08;17.92;;;;;;;0.62;82.20;102274.00;1796206;79;20996;-89
2020/12/19 01:32:09;;;;;;;56.13;19.20;;;;;;;0.58;82.46;102271.30;1796330;79;21083;-90
2020/12/19 01:34:35;;;;;;;56.68;18.30;;;;;;;0.56;82.60;102275.94;1796185;79;21279;-90
2020/12/19 01:37:01;;;;;;;52.35;18.73;;;;;;;0.56;83.12;102273.28;1796273;79;20917;-89
2020/12/19 01:39:27;;;;;;;51.50;16.73;;;;;;;0.59;82.91;102275.63;1792279;79;20953;-90
2020/12/19 01:41:53;;;;;;;54.95;19.00;;;;;;;0.75;82.73;102280.73;1796196;79;20956;-89
2020/12/19 01:44:19;;;;;;;56.05;19.27;;;;;;;0.62;82.83;102277.15;1796237;79;21163;-89
2020/12/19 01:46:53;;;;;;;55.67;20.60;;;;;;;0.57;83.51;102275.44;1796311;79;22022;-90
2020/12/19 01:49:22;;;;;;;58.85;20.37;;;;;;;0.59;83.93;102273.45;1678037;84;21224;-89
2020/12/19 01:51:51;;;;;;;53.98;20.40;;;;;;;0.73;82.81;102269.43;1678113;85;21243;-89
2020/12/19 01:54:20;;;;;;;52.20;20.27;;;;;;;0.72;82.57;102276.56;1678178;85;21149;-90
2020/12/19 01:56:55;;;;;;;56.33;18.45;;;;;;;0.68;83.14;102276.53;1674302;85;21205;-90
2020/12/19 01:59:22;;;;;;;48.63;16.17;;;;;;;0.71;83.33;102274.05;1678777;84;21185;-90
2020/12/19 02:01:56;;;;;;;55.25;17.32;;;;;;;0.75;83.16;102280.23;1688219;82;21185;-90
2020/12/19 02:04:25;;;;;;;53.00;17.42;;;;;;;0.82;83.17;102281.27;1688123;83;21164;-89
2020/12/19 02:06:56;;;;;;;46.37;16.50;;;;;;;0.87;82.73;102275.52;1690218;82;21535;-90
2020/12/19 02:09:26;;;;;;;52.27;17.32;;;;;;;0.83;82.85;102272.84;1708053;84;21166;-90
2020/12/19 02:11:52;;;;;;;54.85;17.85;;;;;;;0.81;82.99;102279.62;1707952;84;21644;-90
2020/12/19 02:14:18;;;;;;;53.35;17.80;;;;;;;0.90;82.85;102269.40;1708003;83;21006;-90
2020/12/19 02:17:11;;;;;;;58.38;19.45;;;;;;;0.86;82.39;102264.08;1708352;83;21108;-90
2020/12/19 02:19:37;;;;;;;60.03;20.60;;;;;;;0.85;82.40;102263.75;1681735;84;21217;-90
2020/12/19 02:22:07;;;;;;;56.35;19.12;;;;;;;0.73;82.75;102268.93;1681900;84;21209;-90
2020/12/19 02:24:33;;;;;;;46.65;15.63;;;;;;;0.81;83.04;102258.89;1681841;84;22002;-90
2020/12/19 02:27:00;;;;;;;44.90;16.35;;;;;;;0.75;82.56;102262.98;1681719;84;21205;-90
2020/12/19 02:29:30;;;;;;;44.15;15.38;;;;;;;0.65;83.61;102264.91;1681758;84;21182;-90
2020/12/19 02:31:59;;;;;;;45.20;15.35;;;;;;;0.64;83.68;102268.53;1681778;84;21182;-90
2020/12/19 02:34:26;;;;;;;44.50;15.15;;;;;;;0.67;83.67;102271.70;1681599;84;21528;-89
2020/12/19 02:36:52;;;;;;;42.50;14.70;;;;;;;0.72;83.46;102267.27;1681670;84;21196;-90
2020/12/19 02:39:18;;;;;;;41.08;14.68;;;;;;;0.71;83.85;102266.95;1681701;85;21260;-90
2020/12/19 02:41:47;;;;;;;40.67;14.00;;;;;;;0.77;83.39;102262.84;1681936;84;21142;-90
2020/12/19 02:44:17;;;;;;;40.70;14.07;;;;;;;0.73;83.27;102260.97;1681819;84;21106;-90
2020/12/19 02:46:44;;;;;;;42.38;13.48;;;;;;;0.83;82.81;102267.53;1726853;82;21674;-91
2020/12/19 02:49:11;;;;;;;47.33;14.15;;;;;;;0.68;83.37;102271.23;1741359;81;21222;-90
2020/12/19 02:51:38;;;;;;;42.35;13.85;;;;;;;0.68;83.55;102268.58;1741065;81;21300;-91
2020/12/19 02:54:04;;;;;;;39.67;13.60;;;;;;;0.73;83.71;102266.28;1741378;81;21256;-90
2020/12/19 02:56:30;;;;;;;36.42;12.20;;;;;;;0.74;83.49;102270.62;1741450;81;21197;-90
2020/12/19 02:58:56;;;;;;;34.50;12.15;;;;;;;0.73;83.39;102272.08;1741682;81;21587;-90
2020/12/19 03:01:30;;;;;;;40.98;13.80;;;;;;;0.72;83.78;102275.73;1721089;81;21178;-91
2020/12/19 03:03:57;;;;;;;40.90;13.32;;;;;;;0.74;83.62;102274.59;1716448;82;21132;-92
2020/12/19 03:10:03;;;;;;;36.25;11.70;;;;;;;0.85;83.00;102270.37;1716676;81;21272;-90
2020/12/19 03:12:29;;;;;;;32.93;10.60;;;;;;;0.76;82.96;102263.81;1716425;81;21223;-91
2020/12/19 03:14:55;;;;;;;40.73;13.05;;;;;;;0.64;83.28;102264.05;1716712;81;21194;-91
2020/12/19 03:17:21;;;;;;;38.50;12.58;;;;;;;0.66;83.05;102263.41;1716966;81;21025;-91
2020/12/19 03:19:47;;;;;;;45.23;13.55;;;;;;;0.61;83.48;102255.57;1717138;81;21017;-90
2020/12/19 03:22:13;;;;;;;40.63;13.40;;;;;;;0.66;83.25;102247.99;1716911;81;20973;-91
2020/12/19 03:24:38;;;;;;;45.43;14.93;;;;;;;0.71;83.17;102244.39;1716988;81;21029;-91
2020/12/19 03:27:04;;;;;;;52.40;16.07;;;;;;;0.82;82.40;102240.14;1716894;81;21264;-91
2020/12/19 03:29:30;;;;;;;46.18;15.30;;;;;;;0.65;82.74;102241.03;1716693;81;21600;-91
2020/12/19 03:31:56;;;;;;;48.35;14.93;;;;;;;0.59;83.44;102242.47;1716958;82;20942;-91
2020/12/19 03:34:25;;;;;;;50.45;15.45;;;;;;;0.54;83.43;102242.09;1717087;82;20961;-91
2020/12/19 03:36:51;;;;;;;42.00;14.43;;;;;;;0.55;83.64;102241.59;1716884;82;21269;-90
2020/12/19 03:39:17;;;;;;;53.33;16.80;;;;;;;0.57;83.36;102240.45;1716873;81;21671;-92
2020/12/19 03:49:03;;;;;;;59.98;17.70;;;;;;;0.54;83.29;102247.89;1716866;81;21085;-90
2020/12/19 03:51:29;;;;;;;58.75;17.73;;;;;;;0.55;83.26;102255.68;1716948;81;20977;-91
2020/12/19 03:53:55;;;;;;;58.25;18.07;;;;;;;0.56;83.38;102256.52;1716913;81;21055;-91
2020/12/19 03:56:21;;;;;;;56.30;18.35;;;;;;;0.63;82.98;102256.26;1716922;81;21133;-91
2020/12/19 04:02:27;;;;;;;60.88;18.57;;;;;;;0.61;83.30;102255.57;1758382;81;21162;-91
2020/12/19 04:04:53;;;;;;;60.00;17.20;;;;;;;0.64;83.12;102255.27;1760233;80;21039;-90
2020/12/19 04:07:19;;;;;;;63.33;19.52;;;;;;;0.61;83.28;102251.59;1760153;81;21233;-90
2020/12/19 04:09:45;;;;;;;56.63;17.30;;;;;;;0.63;83.17;102252.28;1759988;81;20953;-90
2020/12/19 04:12:11;;;;;;;65.25;21.02;;;;;;;0.64;82.98;102255.27;1760132;81;21118;-91
2020/12/19 04:14:37;;;;;;;68.07;19.23;;;;;;;0.65;83.21;102255.12;1760171;81;21563;-91
2020/12/19 04:17:10;;;;;;;69.85;19.37;;;;;;;0.70;83.02;102256.47;1760049;81;21049;-91
2020/12/19 04:19:39;;;;;;;64.55;19.50;;;;;;;0.70;82.98;102257.80;1760326;81;21288;-92
2020/12/19 04:22:05;;;;;;;81.30;22.73;;;;;;;0.74;82.62;102252.05;1738526;81;21178;-92
2020/12/19 04:24:32;;;;;;;72.97;20.23;;;;;;;0.65;82.72;102255.62;1756238;81;21095;-92
2020/12/19 04:27:00;;;;;;;60.08;19.65;;;;;;;0.67;82.77;102256.28;1760108;81;21623;-91
2020/12/19 04:29:28;;;;;;;77.70;21.90;;;;;;;0.64;82.70;102255.27;1703016;83;21226;-91
2020/12/19 04:31:55;;;;;;;83.85;23.47;;;;;;;0.61;82.91;102256.89;1703254;84;22199;-91
2020/12/19 04:34:23;;;;;;;70.87;22.37;;;;;;;0.65;82.80;102256.95;1702951;84;21678;-92
2020/12/19 04:36:49;;;;;;;74.82;23.25;;;;;;;0.64;82.73;102264.55;1703412;84;21639;-91
2020/12/19 04:39:15;;;;;;;83.97;23.27;;;;;;;0.61;83.04;102265.68;1702268;84;20974;-91
2020/12/19 04:41:41;;;;;;;78.30;23.90;;;;;;;0.64;82.75;102269.35;1702132;84;21168;-91
2020/12/19 04:44:10;;;;;;;72.47;21.35;;;;;;;0.61;83.04;102263.03;1703127;83;21259;-92
2020/12/19 04:46:40;;;;;;;72.22;21.07;;;;;;;0.65;82.91;102272.86;1702992;84;21248;-92
2020/12/19 04:49:07;;;;;;;66.30;18.48;;;;;;;0.61;82.88;102272.31;1703328;83;21625;-91
2020/12/19 04:51:35;;;;;;;62.45;18.37;;;;;;;0.66;82.54;102267.39;1703018;83;21128;-90
2020/12/19 04:54:01;;;;;;;85.15;21.52;;;;;;;0.59;82.75;102269.47;1703077;84;21613;-91
2020/12/19 04:56:29;;;;;;;70.28;20.55;;;;;;;0.55;83.37;102270.77;1703159;84;21606;-91
2020/12/19 05:02:36;;;;;;;68.60;20.37;;;;;;;0.62;82.85;102272.67;1697766;83;21214;-91
2020/12/19 05:05:07;;;;;;;73.42;20.97;;;;;;;0.57;83.15;102274.94;1698521;84;21039;-91
2020/12/19 05:07:33;;;;;;;68.20;19.27;;;;;;;0.64;82.94;102268.53;1698695;84;21170;-92
2020/12/19 05:13:44;;;;;;;59.98;19.12;;;;;;;0.66;82.46;102270.05;1698566;84;21655;-91
2020/12/19 05:16:13;;;;;;;69.07;18.85;;;;;;;0.61;82.49;102267.50;1698499;84;21158;-90
2020/12/19 05:18:40;;;;;;;60.80;18.07;;;;;;;0.55;82.79;102264.97;1698449;84;21154;-90
2020/12/19 05:21:07;;;;;;;64.60;17.82;;;;;;;0.56;82.81;102266.66;1698633;84;21130;-90
2020/12/19 05:23:38;;;;;;;53.58;15.70;;;;;;;0.49;82.95;102273.53;1698488;84;21602;-91
2020/12/19 05:26:06;;;;;;;59.80;18.20;;;;;;;0.53;83.18;102274.91;1721834;81;21169;-91
2020/12/19 05:28:40;;;;;;;58.48;16.93;;;;;;;0.53;83.47;102276.71;1754904;81;21173;-91
2020/12/19 05:31:07;;;;;;;;;;;;;;;0.57;83.23;102274.11;1671142;85;21218;-91
2020/12/19 05:33:36;;;;;;;54.40;17.30;;;;;;;0.56;83.21;102269.30;1668619;85;20582;-90
2020/12/19 05:36:07;;;;;;;59.63;16.23;;;;;;;0.61;82.92;102272.81;1668476;85;21239;-90
2020/12/19 05:38:38;;;;;;;60.65;18.27;;;;;;;0.67;82.71;102276.17;1668711;85;21227;-91
2020/12/19 05:41:05;;;;;;;62.25;17.27;;;;;;;0.61;82.92;102274.97;1665828;85;21197;-91
2020/12/19 05:43:31;;;;;;;61.35;17.67;;;;;;;0.56;82.95;102276.41;1668744;85;21230;-90
2020/12/19 05:45:57;;;;;;;61.13;18.73;;;;;;;0.59;82.99;102278.28;1668686;85;21091;-90
2020/12/19 05:48:23;;;;;;;61.90;18.40;;;;;;;0.59;83.32;102280.94;1668618;85;21184;-90
2020/12/19 05:50:49;;;;;;;60.23;17.20;;;;;;;0.57;83.73;102291.35;1668369;85;21077;-91
2020/12/19 05:53:16;;;;;;;65.62;18.65;;;;;;;0.60;83.38;102287.90;1668919;85;21214;-90
2020/12/19 05:55:43;;;;;;;57.93;17.67;;;;;;;0.63;83.44;102294.72;1668325;85;21175;-90
2020/12/19 05:58:10;;;;;;;62.88;17.62;;;;;;;0.73;83.24;102290.66;1668338;84;21229;-90
2020/12/19 06:00:38;;;;;;;65.42;18.07;;;;;;;0.68;82.92;102294.61;1668727;85;21159;-90
2020/12/19 06:03:06;;;;;;;61.58;18.60;;;;;;;0.53;83.92;102300.11;1661718;84;21618;-92
2020/12/19 06:09:13;;;;;;;62.33;18.77;;;;;;;0.68;83.57;102297.27;1662676;86;21196;-91
2020/12/19 06:12:06;;;;;;;65.90;20.75;;;;;;;0.64;83.39;102307.81;1658523;86;21189;-91
2020/12/19 06:14:41;;;;;;;70.95;19.90;;;;;;;0.73;83.16;102305.25;1657808;86;21254;-92
2020/12/19 06:17:17;;;;;;;62.40;18.75;;;;;;;0.62;83.64;102302.35;1658646;86;21161;-90
2020/12/19 06:19:46;;;;;;;76.02;20.50;;;;;;;0.64;83.62;102303.84;1646555;87;21237;-91
2020/12/19 06:22:12;;;;;;;68.83;21.68;;;;;;;0.67;83.69;102302.70;1649670;86;21859;-92
2020/12/19 06:24:45;;;;;;;63.48;19.40;;;;;;;0.73;83.35;102303.42;1649567;87;21066;-91
2020/12/19 06:27:28;;;;;;;74.73;20.63;;;;;;;0.67;83.58;102302.70;1654610;84;21236;-91
2020/12/19 06:29:54;;;;;;;;;;;;;;;0.71;83.53;102308.06;1683488;84;21870;-91
2020/12/19 06:32:29;;;;;;;65.75;19.95;;;;;;;0.68;83.68;102307.87;1680274;85;20459;-92
2020/12/19 06:38:42;;;;;;;69.17;21.15;;;;;;;0.82;82.75;102310.46;1680942;84;21180;-91
2020/12/19 06:41:08;;;;;;;61.45;20.48;;;;;;;0.70;83.53;102309.03;1680780;84;21620;-92
2020/12/19 06:43:33;;;;;;;75.50;22.25;;;;;;;0.72;83.46;102311.05;1677069;85;20985;-91
2020/12/19 06:45:59;;;;;;;78.55;23.05;;;;;;;0.75;83.55;102315.22;1680980;85;21048;-90
2020/12/19 06:48:34;;;;;;;76.02;24.05;;;;;;;0.72;83.77;102315.03;1680852;85;21072;-90
2020/12/19 06:54:46;;;;;;;60.08;19.02;;;;;;;0.80;83.76;102312.45;1683251;84;21378;-94
2020/12/19 07:37:00;;;;;;;63.80;18.12;;;;;;;0.88;83.11;102311.20;1765689;81;21182;-92
2020/12/19 07:43:10;;;;;;;60.78;17.52;;;;;;;0.87;83.20;102310.84;1764930;81;21138;-89
2020/12/19 07:45:38;;;;;;;71.40;17.90;;;;;;;0.90;83.37;102318.50;1762049;81;21147;-83
2020/12/19 07:48:05;;;;;;;63.83;17.30;;;;;;;0.97;83.24;102316.55;1764969;80;21166;-91
2020/12/19 07:50:34;;;;;;;61.35;16.12;;;;;;;1.01;83.36;102321.91;1765134;80;21182;-90
2020/12/19 07:53:05;;;;;;;74.27;17.48;;;;;;;1.08;83.03;102322.95;1765145;80;21148;-88
2020/12/19 07:55:33;;;;;;;61.75;16.17;;;;;;;1.09;83.09;102314.84;1765170;80;21166;-87
2020/12/19 07:58:01;;;;;;;60.85;18.02;;;;;;;1.10;83.11;102313.02;1765222;81;21179;-88
2020/12/19 08:00:31;;;;;;;57.03;16.82;;;;;;;1.19;82.78;102319.23;1744256;81;21158;-88
2020/12/19 08:02:58;;;;;;;67.55;17.37;;;;;;;1.19;83.18;102316.07;1765221;81;21154;-88
2020/12/19 08:05:23;;;;;;;62.48;17.02;;;;;;;1.23;82.93;102312.60;1765283;80;21150;-88
2020/12/19 08:07:54;;;;;;;57.23;16.42;;;;;;;1.31;82.75;102308.19;1765210;80;20936;-88
2020/12/19 08:10:22;;;;;;;88.17;24.30;;;;;;;1.45;82.60;102308.61;1765167;80;21154;-89
2020/12/19 08:12:48;;;;;;;88.85;23.80;;;;;;;1.55;82.38;102310.15;1765148;81;21166;-88
2020/12/19 08:15:23;;;;;;;68.07;18.30;;;;;;;1.66;82.07;102301.08;1743696;81;21142;-87
2020/12/19 08:17:56;;;;;;;54.40;15.43;;;;;;;1.50;82.08;102307.63;1764710;81;21170;-88
2020/12/19 08:20:27;;;;;;;54.88;14.47;;;;;;;1.58;82.59;102303.69;1760034;81;21075;-88
2020/12/19 08:22:56;;;;;;;62.25;15.72;;;;;;;1.95;81.76;102301.21;1705677;84;21557;-88
2020/12/19 08:25:22;;;;;;;57.40;15.28;;;;;;;1.77;81.16;102299.48;1705812;84;21168;-88
2020/12/19 08:27:49;;;;;;;59.50;15.53;;;;;;;1.82;81.74;102293.66;1706016;84;21588;-88
2020/12/19 08:30:28;;;;;;;59.23;15.78;;;;;;;1.92;81.62;102294.89;1715106;80;21610;-89
2020/12/19 08:33:04;;;;;;;51.75;14.70;;;;;;;2.09;81.02;102287.30;1738605;80;21140;-90
2020/12/19 08:35:41;;;;;;;59.23;15.98;;;;;;;2.06;80.72;102288.95;1763231;80;21232;-89
2020/12/19 08:38:21;;;;;;;61.00;16.48;;;;;;;1.93;80.75;102296.04;1763356;80;21232;-89
2020/12/19 08:40:50;;;;;;;54.33;15.18;;;;;;;1.93;81.33;102289.89;1724065;83;20981;-90
2020/12/19 08:43:19;;;;;;;59.90;15.48;;;;;;;1.93;81.63;102294.71;1654736;85;21669;-90
2020/12/19 08:45:49;;;;;;;55.30;15.75;;;;;;;1.97;81.81;102284.11;1648434;85;21237;-88
2020/12/19 08:48:24;;;;;;;65.20;17.10;;;;;;;2.01;81.78;102276.64;1620612;87;21276;-89
2020/12/19 08:50:53;;;;;;;62.70;16.42;;;;;;;1.97;81.62;102274.80;1656057;85;21191;-89
2020/12/19 08:53:26;;;;;;;61.70;17.02;;;;;;;2.07;81.78;102273.33;1648837;87;21219;-87
2020/12/19 08:55:54;;;;;;;61.77;16.90;;;;;;;2.09;82.26;102272.68;1653884;85;21278;-89
2020/12/19 08:58:29;;;;;;;60.88;17.27;;;;;;;2.17;81.97;102266.53;1678827;85;21276;-88
2020/12/19 09:00:59;;;;;;;62.90;17.25;;;;;;;2.27;81.97;102266.73;1657036;85;22132;-88
2020/12/19 09:03:32;;;;;;;58.42;16.62;;;;;;;2.26;81.93;102273.53;1636189;87;21144;-88
2020/12/19 09:06:08;;;;;;;69.87;18.00;;;;;;;2.40;81.81;102269.41;1636368;87;21160;-88
2020/12/19 09:08:39;;;;;;;58.20;16.65;;;;;;;2.73;80.10;102262.27;1593897;89;21217;-88
2020/12/19 09:11:07;;;;;;;61.37;18.05;;;;;;;2.43;81.20;102263.75;1585083;90;21206;-88
2020/12/19 09:13:36;;;;;;;57.50;17.62;;;;;;;2.47;81.61;102264.60;1582193;89;21199;-88
2020/12/19 09:16:09;;;;;;;69.35;17.95;;;;;;;2.55;81.38;102260.27;1591208;89;21666;-88
2020/12/19 09:18:38;;;;;;;56.85;16.20;;;;;;;2.65;81.14;102254.30;1584790;89;21187;-88
2020/12/19 09:21:08;;;;;;;55.70;17.48;;;;;;;2.70;81.39;102259.44;1535008;93;21233;-88
2020/12/19 09:23:35;;;;;;;52.50;16.02;;;;;;;2.63;81.59;102256.29;1535314;92;21208;-88
2020/12/19 09:26:04;;;;;;;60.08;16.55;;;;;;;2.76;81.27;102260.60;1535328;93;21820;-88
2020/12/19 09:28:30;;;;;;;61.02;16.20;;;;;;;2.72;80.49;102256.12;1535442;93;21213;-90
2020/12/19 09:30:58;;;;;;;63.95;16.82;;;;;;;2.62;80.72;102247.48;1548120;91;21654;-89
2020/12/19 09:33:25;;;;;;;58.23;18.30;;;;;;;2.70;80.50;102248.79;1560907;91;21214;-90
2020/12/19 09:35:53;;;;;;;84.65;21.37;;;;;;;2.69;80.55;102252.45;1560813;91;21235;-89
2020/12/19 09:38:19;;;;;;;60.78;17.40;;;;;;;2.78;80.15;102245.30;1560958;91;21267;-90
2020/12/19 09:40:46;;;;;;;70.12;18.65;;;;;;;2.78;79.80;102247.14;1609601;88;21733;-89
2020/12/19 09:43:12;;;;;;;63.65;17.82;;;;;;;2.64;78.63;102238.81;1626430;88;20991;-89
2020/12/19 09:45:39;;;;;;;69.37;19.95;;;;;;;2.62;80.10;102233.34;1635365;86;21160;-88
2020/12/19 09:48:05;;;;;;;63.85;18.30;;;;;;;2.43;80.29;102231.83;1650661;86;21152;-87
2020/12/19 09:50:32;;;;;;;69.62;19.80;;;;;;;2.52;80.82;102234.00;1650847;86;22048;-86
2020/12/19 09:52:58;;;;;;;65.47;18.20;;;;;;;2.69;80.36;102235.66;1650724;86;21161;-86
2020/12/19 09:55:27;;;;;;;62.85;16.42;;;;;;;2.72;80.34;102233.48;1650882;86;21137;-86
2020/12/19 09:57:53;;;;;;;59.33;16.65;;;;;;;2.67;79.96;102233.66;1628762;86;21558;-86
2020/12/19 10:00:19;;;;;;;59.90;17.87;;;;;;;2.63;79.77;102233.67;1662906;84;21093;-87
2020/12/19 10:02:50;;;;;;;60.10;17.07;;;;;;;2.67;79.71;102233.15;1676211;85;21612;-87
2020/12/19 10:05:16;;;;;;;52.05;15.58;;;;;;;2.69;80.05;102228.50;1676339;84;21085;-87
2020/12/19 10:07:42;;;;;;;64.67;17.87;;;;;;;2.64;79.34;102225.50;1676265;85;21148;-87
2020/12/19 10:10:09;;;;;;;55.60;17.37;;;;;;;2.76;79.49;102222.51;1647603;85;21697;-87
2020/12/19 10:12:35;;;;;;;63.45;17.15;;;;;;;2.82;79.49;102218.66;1676402;85;21171;-87
2020/12/19 10:15:05;;;;;;;64.37;18.85;;;;;;;2.75;79.33;102216.36;1676519;85;21777;-88
2020/12/19 10:17:31;;;;;;;64.25;19.07;;;;;;;2.75;79.36;102212.87;1701458;81;21181;-87
2020/12/19 10:19:59;;;;;;;66.80;18.87;;;;;;;2.65;79.49;102203.23;1768423;79;21170;-87
2020/12/19 10:22:25;;;;;;;63.78;17.98;;;;;;;2.69;79.93;102198.40;1759867;81;21546;-87
2020/12/19 10:24:54;;;;;;;66.28;19.95;;;;;;;2.81;79.43;102201.55;1753419;81;21101;-88
2020/12/19 10:27:19;;;;;;;62.58;18.00;;;;;;;2.70;79.21;102200.88;1753168;80;21142;-88
2020/12/19 10:29:48;;;;;;;60.67;18.20;;;;;;;2.66;79.60;102196.08;1732053;81;21149;-88
2020/12/19 10:32:13;;;;;;;62.00;17.90;;;;;;;2.84;79.42;102200.70;1753235;81;21164;-88
2020/12/19 10:34:40;;;;;;;57.78;16.35;;;;;;;2.73;79.44;102196.55;1753235;81;21518;-88
2020/12/19 10:37:07;;;;;;;57.40;16.48;;;;;;;2.67;79.52;102199.05;1753713;81;21602;-88
2020/12/19 10:39:33;;;;;;;53.50;15.45;;;;;;;2.90;78.99;102201.86;1753143;80;21233;-88
2020/12/19 10:41:59;;;;;;;54.10;18.25;;;;;;;3.01;78.40;102190.86;1753285;81;21629;-88
2020/12/19 10:44:25;;;;;;;54.75;16.90;;;;;;;2.77;78.74;102189.59;1753480;81;21120;-88
2020/12/19 10:46:51;;;;;;;57.13;16.87;;;;;;;2.73;78.95;102187.23;1753236;81;21132;-87
2020/12/19 10:49:17;;;;;;;45.70;14.47;;;;;;;2.77;78.93;102186.92;1752986;81;21140;-87
2020/12/19 10:51:43;;;;;;;49.27;16.15;;;;;;;2.88;77.97;102186.55;1753145;80;21201;-88
2020/12/19 10:54:09;;;;;;;52.10;15.40;;;;;;;2.72;78.71;102191.41;1753216;80;21156;-88
2020/12/19 10:56:35;;;;;;;50.45;15.48;;;;;;;2.83;78.56;102188.91;1753913;80;21230;-88
2020/12/19 10:59:01;;;;;;;53.50;15.50;;;;;;;2.65;78.25;102189.10;1722470;83;21018;-87
2020/12/19 11:01:27;;;;;;;59.77;17.10;;;;;;;2.63;78.61;102189.76;1722568;83;21706;-88
2020/12/19 11:03:53;;;;;;;51.83;15.53;;;;;;;2.81;78.03;102190.39;1722573;82;21180;-87
2020/12/19 11:06:21;;;;;;;52.85;15.43;;;;;;;2.65;78.24;102190.44;1718592;83;20934;-87
2020/12/19 11:08:49;;;;;;;54.67;15.93;;;;;;;2.49;78.90;102190.75;1698211;83;21155;-87
2020/12/19 11:11:16;;;;;;;49.00;15.63;;;;;;;2.63;78.56;102191.09;1722712;83;21181;-88
2020/12/19 11:13:44;;;;;;;53.95;17.07;;;;;;;2.68;78.63;102190.92;1722474;83;21140;-88
2020/12/19 11:16:12;;;;;;;53.98;16.30;;;;;;;2.48;78.89;102187.77;1722554;82;21147;-87
2020/12/19 11:18:38;;;;;;;58.65;16.35;;;;;;;2.43;78.84;102191.41;1723517;82;21176;-88
2020/12/19 11:21:04;;;;;;;58.15;16.10;;;;;;;2.40;78.95;102193.08;1738530;82;21048;-88
2020/12/19 11:23:30;;;;;;;63.68;16.87;;;;;;;2.35;79.32;102189.25;1752228;81;21108;-88
2020/12/19 11:25:56;;;;;;;61.63;17.07;;;;;;;2.32;79.91;102188.25;1769668;79;21155;-88
2020/12/19 11:28:22;;;;;;;60.48;17.25;;;;;;;2.39;79.58;102187.94;1769584;81;21269;-88
2020/12/19 11:30:48;;;;;;;56.25;17.30;;;;;;;2.39;79.92;102183.95;1769685;80;21056;-88
2020/12/19 11:33:14;;;;;;;59.70;18.17;;;;;;;2.43;79.85;102179.44;1769684;80;20985;-88
2020/12/19 11:35:40;;;;;;;68.70;19.77;;;;;;;2.50;79.89;102185.78;1769933;81;20966;-88
2020/12/19 11:38:06;;;;;;;57.35;18.35;;;;;;;2.49;80.00;102178.77;1738640;81;21081;-88
2020/12/19 11:40:32;;;;;;;61.28;18.55;;;;;;;2.54;79.70;102175.63;1769776;80;21072;-88
2020/12/19 11:42:58;;;;;;;70.47;21.55;;;;;;;2.64;79.44;102172.27;1769628;81;21188;-88
2020/12/19 11:45:24;;;;;;;62.55;19.25;;;;;;;2.64;79.05;102174.94;1769671;81;20957;-88
2020/12/19 11:47:50;;;;;;;64.22;19.00;;;;;;;2.46;79.69;102174.30;1769673;79;21744;-88
2020/12/19 11:50:18;;;;;;;66.97;20.05;;;;;;;2.55;79.65;102165.30;1769536;81;21181;-88
2020/12/19 11:52:44;;;;;;;94.22;31.25;;;;;;;2.55;79.60;102163.97;1769576;80;21088;-88
2020/12/19 11:55:10;;;;;;;70.90;20.72;;;;;;;2.52;79.91;102168.30;1769556;79;20968;-88
2020/12/19 11:57:38;;;;;;;68.85;18.55;;;;;;;2.53;79.82;102166.47;1769729;80;21735;-88
2020/12/19 12:00:05;;;;;;;68.83;19.15;;;;;;;2.50;79.72;102163.67;1768981;79;21621;-88
2020/12/19 12:06:12;;;;;;;69.70;19.60;;;;;;;;;;1769682;81;21246;-88
2020/12/19 12:12:19;;;;;;;78.40;21.52;;;;;;;2.46;79.98;102168.47;1769802;81;21148;-88
2020/12/19 12:14:45;;;;;;;84.77;25.37;;;;;;;2.56;79.99;102164.33;1737602;81;21105;-88
2020/12/19 12:17:11;;;;;;;74.72;21.70;;;;;;;2.58;79.90;102166.30;1769580;80;21135;-88
2020/12/19 12:19:40;;;;;;;73.87;22.82;;;;;;;2.57;80.09;102163.31;1778776;79;21217;-88
2020/12/19 12:22:07;;;;;;;77.40;23.27;;;;;;;2.56;80.10;102163.47;1773696;79;21115;-89
2020/12/19 12:24:33;;;;;;;76.72;22.32;;;;;;;2.56;80.09;102168.31;1773770;79;21218;-87
2020/12/19 12:26:59;;;;;;;86.72;24.67;;;;;;;2.54;80.16;102168.97;1796125;79;21187;-88
2020/12/19 12:33:05;;;;;;;75.55;22.85;;;;;;;2.48;80.48;102180.29;1796247;79;21179;-87
2020/12/19 12:35:31;;;;;;;79.85;24.02;;;;;;;2.47;80.42;102176.80;1792553;79;21039;-87
2020/12/19 12:37:57;;;;;;;85.97;23.02;;;;;;;2.49;80.24;102175.28;1796377;79;21091;-87
2020/12/19 12:40:23;;;;;;;84.13;24.87;;;;;;;2.62;79.81;102174.30;1792612;79;21066;-87
2020/12/19 12:42:49;;;;;;;76.10;23.20;;;;;;;2.42;80.11;102175.64;1796378;79;20932;-87
2020/12/19 12:45:15;;;;;;;72.62;23.80;;;;;;;2.37;80.30;102176.13;1773984;79;21361;-87
2020/12/19 12:47:41;;;;;;;77.00;22.65;;;;;;;2.31;80.90;102172.80;1796324;79;20949;-87
2020/12/19 12:50:08;;;;;;;72.60;22.17;;;;;;;2.39;80.57;102170.14;1796295;79;21003;-89